createdAt,value
2019-01-15T00:00:49.641Z,58.53
2019-01-15T00:03:23.405Z,49.67
2019-01-15T00:05:57.334Z,52.97
2019-01-15T00:08:31.022Z,51.00
2019-01-15T00:11:04.779Z,50.57
2019-01-15T00:13:38.534Z,57.47
2019-01-15T00:16:12.422Z,50.60
2019-01-15T00:18:46.175Z,56.87
2019-01-15T00:21:20.333Z,57.50
2019-01-15T00:24:00.219Z,57.57
2019-01-15T00:26:33.812Z,51.40
2019-01-15T00:29:07.461Z,54.50
2019-01-15T00:31:41.241Z,65.90
2019-01-15T00:34:15.829Z,52.50
2019-01-15T00:36:49.860Z,49.07
2019-01-15T00:39:23.551Z,50.27
2019-01-15T00:41:57.519Z,45.50
2019-01-15T00:44:31.077Z,45.00
2019-01-15T00:47:04.443Z,55.27
2019-01-15T00:49:37.881Z,45.63
2019-01-15T00:52:11.740Z,51.30
2019-01-15T00:54:45.418Z,60.30
2019-01-15T00:57:18.898Z,49.93
2019-01-15T00:59:52.546Z,46.10
2019-01-15T01:02:25.907Z,64.93
2019-01-15T01:04:59.143Z,47.60
2019-01-15T01:07:32.761Z,44.53
2019-01-15T01:10:06.789Z,41.60
2019-01-15T01:12:41.422Z,39.33
2019-01-15T01:15:16.285Z,47.97
2019-01-15T01:17:50.255Z,41.80
2019-01-15T01:20:25.585Z,50.10
2019-01-15T01:22:59.891Z,42.23
2019-01-15T01:25:33.114Z,47.00
2019-01-15T01:28:06.936Z,49.13
2019-01-15T01:30:40.431Z,47.17
2019-01-15T01:33:14.096Z,56.13
2019-01-15T01:35:47.647Z,52.07
2019-01-15T01:38:21.491Z,50.37
2019-01-15T01:40:55.051Z,50.07
2019-01-15T01:43:29.252Z,50.50
2019-01-15T01:46:02.757Z,52.20
2019-01-15T01:48:36.743Z,50.93
2019-01-15T01:51:10.023Z,43.90
2019-01-15T01:53:43.291Z,47.00
2019-01-15T01:56:16.701Z,50.50
2019-01-15T01:58:50.806Z,49.10
2019-01-15T02:01:24.306Z,68.63
2019-01-15T02:03:58.171Z,44.80
2019-01-15T02:06:31.583Z,42.93
2019-01-15T02:09:07.099Z,37.80
2019-01-15T02:11:43.287Z,35.50
2019-01-15T02:14:17.023Z,34.50
2019-01-15T02:16:50.972Z,31.90
2019-01-15T02:19:24.503Z,35.40
2019-01-15T02:21:56.571Z,27.30
2019-01-15T02:24:31.494Z,27.13
2019-01-15T02:27:07.218Z,31.17
2019-01-15T02:29:40.963Z,25.53
2019-01-15T02:32:14.643Z,28.43
2019-01-15T02:34:48.348Z,24.23
2019-01-15T02:37:21.681Z,22.57
2019-01-15T02:39:55.643Z,23.43
2019-01-15T02:42:31.203Z,24.80
2019-01-15T02:45:05.820Z,20.07
2019-01-15T02:47:39.179Z,19.00
2019-01-15T02:50:14.863Z,21.87
2019-01-15T02:52:48.223Z,22.20
2019-01-15T02:55:22.115Z,20.20
2019-01-15T02:57:55.611Z,18.70
2019-01-15T03:00:29.635Z,17.23
2019-01-15T03:03:02.875Z,20.27
2019-01-15T03:05:36.874Z,18.67
2019-01-15T03:08:10.497Z,23.70
2019-01-15T03:10:44.606Z,16.70
2019-01-15T03:13:18.651Z,19.53
2019-01-15T03:15:52.318Z,23.57
2019-01-15T03:18:27.064Z,17.20
2019-01-15T03:21:00.565Z,21.07
2019-01-15T03:23:34.280Z,24.50
2019-01-15T03:26:09.977Z,19.23
2019-01-15T03:28:43.292Z,21.43
2019-01-15T03:31:18.222Z,21.87
2019-01-15T03:33:51.644Z,11.83
2019-01-15T03:36:25.134Z,13.83
2019-01-15T03:38:58.602Z,12.07
2019-01-15T03:41:32.693Z,4.33
2019-01-15T03:44:08.857Z,7.77
2019-01-15T03:46:42.690Z,3.83
2019-01-15T03:49:16.224Z,6.57
2019-01-15T03:51:49.863Z,8.03
2019-01-15T03:54:23.348Z,9.73
2019-01-15T03:56:57.346Z,8.73
2019-01-15T03:59:30.825Z,10.13
2019-01-15T04:02:04.119Z,12.10
2019-01-15T04:04:37.992Z,17.63
2019-01-15T04:07:12.449Z,14.33
2019-01-15T04:09:45.908Z,20.63
2019-01-15T04:12:19.933Z,24.40
2019-01-15T04:14:53.491Z,13.20
2019-01-15T04:17:27.459Z,14.47
2019-01-15T04:20:00.924Z,18.70
2019-01-15T04:22:34.461Z,18.33
2019-01-15T04:25:08.592Z,18.37
2019-01-15T04:27:43.063Z,18.97
2019-01-15T04:30:21.192Z,26.40
2019-01-15T04:32:55.119Z,16.90
2019-01-15T04:35:28.645Z,18.53
2019-01-15T04:38:02.167Z,18.30
2019-01-15T04:40:35.444Z,31.43
2019-01-15T04:43:09.596Z,13.43
2019-01-15T04:45:43.067Z,14.93
2019-01-15T04:48:16.960Z,13.33
2019-01-15T04:50:50.368Z,14.37
2019-01-15T04:53:24.007Z,19.67
2019-01-15T04:55:57.575Z,19.37
2019-01-15T04:58:31.221Z,27.37
2019-01-15T05:01:04.588Z,16.07
2019-01-15T05:03:39.037Z,15.27
2019-01-15T05:06:13.707Z,32.60
2019-01-15T05:08:47.667Z,18.57
2019-01-15T05:11:20.842Z,21.83
2019-01-15T05:13:54.392Z,16.40
2019-01-15T05:16:27.690Z,24.93
2019-01-15T05:19:01.679Z,36.03
2019-01-15T05:21:35.319Z,43.57
2019-01-15T05:24:09.121Z,32.23
2019-01-15T05:26:42.591Z,26.00
2019-01-15T05:29:16.786Z,36.03
2019-01-15T05:31:50.177Z,27.80
2019-01-15T05:34:24.137Z,83.00
2019-01-15T05:36:57.783Z,50.30
2019-01-15T05:39:31.775Z,40.63
2019-01-15T05:42:05.473Z,30.20
2019-01-15T05:44:38.895Z,55.10
2019-01-15T05:47:12.376Z,49.87
2019-01-15T05:49:46.491Z,38.73
2019-01-15T05:52:20.075Z,52.07
2019-01-15T05:54:53.900Z,45.50
2019-01-15T05:57:27.306Z,54.07
2019-01-15T06:00:00.743Z,45.27
2019-01-15T06:02:35.371Z,37.67
2019-01-15T06:05:09.881Z,58.10
2019-01-15T06:07:43.619Z,32.27
2019-01-15T06:10:17.591Z,50.53
2019-01-15T06:12:52.051Z,50.57
2019-01-15T06:15:25.706Z,42.63
2019-01-15T06:17:59.135Z,55.67
2019-01-15T06:20:34.107Z,51.00
2019-01-15T06:23:07.906Z,41.67
2019-01-15T06:25:43.971Z,42.60
2019-01-15T06:28:17.390Z,49.97
2019-01-15T06:30:51.975Z,29.67
2019-01-15T06:33:25.722Z,25.63
2019-01-15T06:35:59.877Z,24.80
2019-01-15T06:38:33.564Z,36.30
2019-01-15T06:41:07.241Z,43.73
2019-01-15T06:43:40.749Z,45.67
2019-01-15T06:46:17.308Z,29.23
2019-01-15T06:48:50.960Z,44.73
2019-01-15T06:51:25.704Z,25.60
2019-01-15T06:53:59.547Z,23.53
2019-01-15T06:56:34.496Z,30.30
2019-01-15T06:59:08.167Z,38.37
2019-01-15T07:01:42.102Z,27.93
2019-01-15T07:04:15.601Z,27.27
2019-01-15T07:06:49.707Z,21.27
2019-01-15T07:09:23.715Z,31.07
2019-01-15T07:11:57.534Z,51.00
2019-01-15T07:14:31.403Z,47.00
2019-01-15T07:17:05.449Z,38.83
2019-01-15T07:19:39.169Z,32.27
2019-01-15T07:22:13.466Z,41.97
2019-01-15T07:24:47.229Z,37.03
2019-01-15T07:27:21.119Z,38.27
2019-01-15T07:29:54.851Z,31.80
2019-01-15T07:32:30.665Z,23.17
2019-01-15T07:35:04.579Z,35.30
2019-01-15T07:37:37.827Z,34.70
2019-01-15T07:40:13.223Z,17.77
2019-01-15T07:42:46.957Z,31.30
2019-01-15T07:45:22.067Z,20.50
2019-01-15T07:47:58.388Z,21.13
2019-01-15T07:50:33.345Z,18.00
2019-01-15T07:53:09.621Z,24.57
2019-01-15T07:55:43.141Z,10.67
2019-01-15T07:58:16.928Z,8.60
2019-01-15T08:00:51.137Z,15.77
2019-01-15T08:03:25.627Z,25.17
2019-01-15T08:06:00.985Z,12.63
2019-01-15T08:08:36.041Z,15.33
2019-01-15T08:11:10.747Z,24.93
2019-01-15T08:13:44.593Z,16.63
2019-01-15T08:16:19.385Z,10.10
2019-01-15T08:18:53.403Z,9.23
2019-01-15T08:21:28.262Z,6.63
2019-01-15T08:24:01.757Z,6.30
2019-01-15T08:26:35.567Z,4.73
2019-01-15T08:29:09.557Z,9.77
2019-01-15T08:31:43.161Z,13.53
2019-01-15T08:34:17.475Z,16.47
2019-01-15T08:36:51.473Z,9.90
2019-01-15T08:39:25.759Z,12.03
2019-01-15T08:41:59.130Z,13.87
2019-01-15T08:44:37.443Z,14.13
2019-01-15T08:47:11.298Z,14.23
2019-01-15T08:49:45.714Z,4.70
2019-01-15T08:52:22.534Z,6.27
2019-01-15T08:54:57.566Z,3.90
2019-01-15T08:57:32.879Z,12.90
2019-01-15T09:00:07.947Z,1.60
2019-01-15T09:02:41.139Z,3.30
2019-01-15T09:05:14.853Z,9.57
2019-01-15T09:07:48.499Z,4.13
2019-01-15T09:10:22.688Z,2.10
2019-01-15T09:12:56.273Z,3.73
2019-01-15T09:15:30.743Z,2.83
2019-01-15T09:18:05.633Z,3.03
2019-01-15T09:20:39.869Z,2.17
2019-01-15T09:23:18.882Z,3.97
2019-01-15T09:25:53.338Z,5.27
2019-01-15T09:28:27.485Z,7.13
2019-01-15T09:31:03.460Z,6.73
2019-01-15T09:33:36.970Z,8.77
2019-01-15T09:36:11.213Z,5.13
2019-01-15T09:38:46.019Z,3.83
2019-01-15T09:41:19.113Z,1.80
2019-01-15T09:43:53.816Z,12.90
2019-01-15T09:46:33.884Z,14.57
2019-01-15T09:49:06.845Z,5.47
2019-01-15T09:51:41.367Z,5.93
2019-01-15T09:54:15.385Z,3.23
2019-01-15T09:56:49.935Z,5.07
2019-01-15T09:59:23.347Z,3.63
2019-01-15T10:01:57.074Z,5.20
2019-01-15T10:04:30.634Z,4.83
2019-01-15T10:07:03.900Z,2.57
2019-01-15T10:09:37.513Z,4.67
2019-01-15T10:12:12.170Z,4.30
2019-01-15T10:14:46.280Z,4.20
2019-01-15T10:17:20.917Z,4.63
2019-01-15T10:19:54.840Z,5.13
2019-01-15T10:22:29.264Z,3.83
2019-01-15T10:25:03.791Z,2.00
2019-01-15T10:27:37.815Z,3.33
2019-01-15T10:30:27.904Z,4.63
2019-01-15T10:33:14.923Z,5.00
2019-01-15T10:35:58.701Z,4.47
2019-01-15T10:38:34.696Z,7.30
2019-01-15T10:41:09.983Z,4.70
2019-01-15T10:43:44.691Z,4.53
2019-01-15T10:46:21.374Z,1.80
2019-01-15T10:48:54.338Z,3.73
2019-01-15T10:51:27.379Z,4.30
2019-01-15T10:54:01.793Z,3.63
2019-01-15T10:56:34.770Z,2.03
2019-01-15T10:59:10.120Z,1.90
2019-01-15T11:01:44.471Z,2.50
2019-01-15T11:04:20.410Z,5.77
2019-01-15T11:06:54.229Z,2.37
2019-01-15T11:09:29.790Z,3.83
2019-01-15T11:12:06.049Z,2.00
2019-01-15T11:14:39.630Z,2.00
2019-01-15T11:17:13.989Z,9.67
2019-01-15T11:19:48.954Z,2.70
2019-01-15T11:22:24.218Z,4.33
2019-01-15T11:24:59.553Z,1.50
2019-01-15T11:27:32.939Z,3.37
2019-01-15T11:30:08.376Z,9.73
2019-01-15T11:32:42.980Z,2.27
2019-01-15T11:35:17.322Z,3.03
2019-01-15T11:37:50.934Z,5.73
2019-01-15T11:40:24.672Z,2.57
2019-01-15T11:42:59.407Z,5.67
2019-01-15T11:45:33.761Z,3.60
2019-01-15T11:48:08.933Z,4.60
2019-01-15T11:50:43.157Z,12.43
2019-01-15T11:53:16.270Z,1.47
2019-01-15T11:55:50.039Z,2.10
2019-01-15T11:58:23.116Z,3.37
2019-01-15T12:01:14.550Z,3.50
2019-01-15T12:04:04.517Z,2.67
2019-01-15T12:07:09.208Z,1.90
2019-01-15T12:09:59.996Z,14.87
2019-01-15T12:12:56.159Z,4.87
2019-01-15T12:15:54.260Z,5.67
2019-01-15T12:18:47.905Z,3.57
2019-01-15T12:21:39.643Z,9.63
2019-01-15T12:24:41.389Z,7.10
2019-01-15T12:27:38.798Z,5.67
2019-01-15T12:30:31.394Z,3.27
2019-01-15T12:33:21.705Z,7.93
2019-01-15T12:36:08.456Z,2.97
2019-01-15T12:39:09.798Z,5.10
2019-01-15T12:42:18.220Z,2.43
2019-01-15T12:45:20.939Z,7.13
2019-01-15T12:48:18.161Z,7.30
2019-01-15T12:51:27.237Z,2.20
2019-01-15T12:54:20.330Z,4.00
2019-01-15T12:57:22.678Z,3.13
2019-01-15T13:00:14.070Z,8.73
2019-01-15T13:03:20.355Z,7.93
2019-01-15T13:06:14.246Z,8.67
2019-01-15T13:09:13.762Z,4.73
2019-01-15T13:12:06.663Z,3.77
2019-01-15T13:15:03.557Z,4.50
2019-01-15T13:17:49.885Z,3.47
2019-01-15T13:20:47.047Z,6.17
2019-01-15T13:23:46.838Z,5.97
2019-01-15T13:26:51.913Z,2.80
2019-01-15T13:29:59.596Z,2.90
2019-01-15T13:32:55.548Z,8.27
2019-01-15T13:35:48.277Z,8.90
2019-01-15T13:38:39.571Z,4.37
2019-01-15T13:41:50.128Z,7.33
2019-01-15T13:44:50.218Z,4.20
2019-01-15T13:47:43.079Z,7.10
2019-01-15T13:50:38.150Z,4.57
2019-01-15T13:53:49.876Z,4.97
2019-01-15T13:56:57.899Z,5.67
2019-01-15T13:59:51.379Z,5.50
2019-01-15T14:02:52.315Z,4.83
2019-01-15T14:05:46.557Z,6.73
2019-01-15T14:08:48.082Z,6.47
2019-01-15T14:11:57.442Z,9.97
2019-01-15T14:14:52.652Z,7.27
2019-01-15T14:17:45.329Z,5.80
2019-01-15T14:20:56.353Z,6.57
2019-01-15T14:24:06.083Z,5.10
2019-01-15T14:27:21.258Z,4.97
2019-01-15T14:30:14.509Z,5.33
2019-01-15T14:33:07.014Z,7.47
2019-01-15T14:36:03.258Z,5.67
2019-01-15T14:38:56.192Z,5.30
2019-01-15T14:41:47.502Z,8.83
2019-01-15T14:44:42.534Z,5.83
2019-01-15T14:47:38.721Z,5.47
2019-01-15T14:50:33.102Z,7.40
2019-01-15T14:53:29.843Z,6.90
2019-01-15T14:56:22.548Z,10.03
2019-01-15T14:59:15.306Z,8.03
2019-01-15T15:02:07.554Z,7.83
2019-01-15T15:04:54.136Z,18.57
2019-01-15T15:07:47.692Z,7.07
2019-01-15T15:10:45.704Z,6.77
2019-01-15T15:13:53.899Z,6.83
2019-01-15T15:16:41.186Z,12.77
2019-01-15T15:19:35.527Z,11.73
2019-01-15T15:22:31.751Z,8.77
2019-01-15T15:25:37.692Z,10.33
2019-01-15T15:28:21.342Z,11.67
2019-01-15T15:31:15.708Z,5.03
2019-01-15T15:34:22.638Z,14.07
2019-01-15T15:37:16.310Z,11.93
2019-01-15T15:40:09.971Z,11.57
2019-01-15T15:43:10.689Z,13.20
2019-01-15T15:46:17.967Z,13.00
2019-01-15T15:49:15.368Z,17.87
2019-01-15T15:52:07.046Z,17.90
2019-01-15T15:54:58.254Z,14.63
2019-01-15T15:57:41.074Z,7.87
2019-01-15T16:00:54.269Z,7.80
2019-01-15T16:03:53.156Z,9.63
2019-01-15T16:06:45.580Z,8.17
2019-01-15T16:09:50.189Z,8.03
2019-01-15T16:12:36.537Z,6.30
2019-01-15T16:15:30.978Z,9.00
2019-01-15T16:18:18.049Z,6.47
2019-01-15T16:21:21.132Z,8.90
2019-01-15T16:24:19.062Z,9.03
2019-01-15T16:27:19.727Z,17.50
2019-01-15T16:30:13.858Z,17.27
2019-01-15T16:33:08.214Z,14.17
2019-01-15T16:35:57.380Z,36.30
2019-01-15T16:38:57.395Z,15.50
2019-01-15T16:41:57.676Z,11.33
2019-01-15T16:44:50.913Z,19.87
2019-01-15T16:47:40.504Z,28.57
2019-01-15T16:50:26.865Z,33.83
2019-01-15T16:53:28.857Z,13.87
2019-01-15T16:56:31.325Z,15.27
2019-01-15T16:59:25.795Z,10.27
2019-01-15T17:02:29.401Z,15.60
2019-01-15T17:05:16.344Z,14.67
2019-01-15T17:08:10.080Z,17.83
2019-01-15T17:11:11.174Z,18.27
2019-01-15T17:14:11.734Z,17.53
2019-01-15T17:17:00.959Z,17.30
2019-01-15T17:19:48.144Z,19.77
2019-01-15T17:22:42.436Z,12.80
2019-01-15T17:25:36.460Z,21.67
2019-01-15T17:28:34.026Z,12.17
2019-01-15T17:31:34.544Z,9.33
2019-01-15T17:34:29.781Z,6.97
2019-01-15T17:37:30.737Z,8.23
2019-01-15T17:40:37.767Z,13.03
2019-01-15T17:43:36.400Z,18.63
2019-01-15T17:46:24.807Z,19.13
2019-01-15T17:49:17.188Z,22.70
2019-01-15T17:52:13.467Z,20.20
2019-01-15T17:55:16.833Z,15.93
2019-01-15T17:58:05.113Z,26.13
2019-01-15T18:00:54.983Z,21.37
2019-01-15T18:03:53.164Z,49.23
2019-01-15T18:06:45.495Z,33.47
2019-01-15T18:09:44.060Z,32.20
2019-01-15T18:12:35.759Z,31.23
2019-01-15T18:15:40.225Z,37.97
2019-01-15T18:18:40.108Z,35.00
2019-01-15T18:21:38.289Z,51.43
2019-01-15T18:24:22.859Z,47.67
2019-01-15T18:27:15.585Z,43.43
2019-01-15T18:30:08.449Z,38.07
2019-01-15T18:33:09.634Z,52.07
2019-01-15T18:36:01.429Z,43.70
2019-01-15T18:38:53.326Z,47.20
2019-01-15T18:41:48.121Z,40.70
2019-01-15T18:45:02.374Z,48.73
2019-01-15T18:48:12.569Z,35.87
2019-01-15T18:51:04.155Z,49.03
2019-01-15T18:53:58.948Z,43.43
2019-01-15T18:56:54.860Z,84.37
2019-01-15T18:59:47.839Z,61.30
2019-01-15T19:02:49.265Z,46.53
2019-01-15T19:05:43.354Z,46.93
2019-01-15T19:08:30.091Z,43.70
2019-01-15T19:11:14.957Z,60.07
2019-01-15T19:14:24.014Z,67.80
2019-01-15T19:17:36.279Z,65.03
2019-01-15T19:20:30.441Z,67.50
2019-01-15T19:23:18.096Z,75.13
2019-01-15T19:26:11.576Z,70.67
2019-01-15T19:29:13.064Z,59.97
2019-01-15T19:32:09.570Z,70.03
2019-01-15T19:35:03.068Z,90.90
2019-01-15T19:37:47.831Z,92.13
2019-01-15T19:40:44.761Z,73.27
2019-01-15T19:43:38.494Z,68.77
2019-01-15T19:46:42.171Z,78.07
2019-01-15T19:49:35.031Z,86.23
2019-01-15T19:52:29.791Z,92.07
2019-01-15T19:55:25.845Z,90.37
2019-01-15T19:58:32.050Z,72.60
2019-01-15T20:01:35.716Z,59.07
2019-01-15T20:04:27.400Z,43.23
2019-01-15T20:07:36.671Z,65.63
2019-01-15T20:10:36.140Z,50.13
2019-01-15T20:13:30.118Z,51.57
2019-01-15T20:16:22.700Z,57.77
2019-01-15T20:19:25.584Z,73.53
2019-01-15T20:22:18.834Z,55.00
2019-01-15T20:25:16.294Z,68.83
2019-01-15T20:28:14.260Z,62.53
2019-01-15T20:30:55.132Z,68.20
2019-01-15T20:33:47.241Z,59.13
2019-01-15T20:36:48.034Z,59.77
2019-01-15T20:39:40.845Z,83.93
2019-01-15T20:42:37.087Z,85.10
2019-01-15T20:45:22.371Z,67.60
2019-01-15T20:48:13.058Z,77.40
2019-01-15T20:51:11.961Z,72.17
2019-01-15T20:54:12.159Z,80.73
2019-01-15T20:57:36.357Z,85.90
2019-01-15T21:00:30.785Z,89.50
2019-01-15T21:03:22.170Z,99.27
2019-01-15T21:06:25.125Z,81.97
2019-01-15T21:09:12.888Z,83.20
2019-01-15T21:12:14.315Z,76.00
2019-01-15T21:15:05.942Z,67.20
2019-01-15T21:18:05.567Z,75.67
2019-01-15T21:20:59.221Z,62.20
2019-01-15T21:23:51.749Z,69.47
2019-01-15T21:26:45.776Z,83.33
2019-01-15T21:29:37.267Z,71.53
2019-01-15T21:32:37.420Z,67.33
2019-01-15T21:35:39.915Z,75.63
2019-01-15T21:38:43.596Z,82.77
2019-01-15T21:41:31.137Z,83.63
2019-01-15T21:44:23.942Z,67.23
2019-01-15T21:47:16.110Z,63.93
2019-01-15T21:50:14.200Z,56.53
2019-01-15T21:53:26.135Z,60.00
2019-01-15T21:56:17.887Z,62.47
2019-01-15T21:59:27.814Z,66.20
2019-01-15T22:02:21.351Z,78.53
2019-01-15T22:05:31.239Z,79.70
2019-01-15T22:08:29.823Z,76.83
2019-01-15T22:11:38.963Z,68.63
2019-01-15T22:14:31.473Z,66.77
2019-01-15T22:17:23.225Z,65.07
2019-01-15T22:20:21.527Z,80.23
2019-01-15T22:23:19.254Z,78.77
2019-01-15T22:26:11.319Z,75.43
2019-01-15T22:29:12.257Z,64.10
2019-01-15T22:32:06.203Z,68.07
2019-01-15T22:35:00.255Z,51.03
2019-01-15T22:38:07.569Z,35.37
2019-01-15T22:41:03.671Z,33.43
2019-01-15T22:43:50.407Z,41.57
2019-01-15T22:46:42.451Z,32.00
2019-01-15T22:49:48.633Z,28.80
2019-01-15T22:52:50.776Z,34.63
2019-01-15T22:55:45.588Z,40.97
2019-01-15T22:58:32.041Z,36.47
2019-01-15T23:01:25.423Z,51.67
2019-01-15T23:04:23.205Z,42.13
2019-01-15T23:07:17.288Z,35.20
2019-01-15T23:10:11.555Z,26.37
2019-01-15T23:12:59.380Z,57.17
2019-01-15T23:16:05.437Z,36.43
2019-01-15T23:18:48.002Z,36.70
2019-01-15T23:21:45.340Z,53.53
2019-01-15T23:24:43.450Z,34.80
2019-01-15T23:27:38.198Z,39.00
2019-01-15T23:30:29.062Z,39.00
2019-01-15T23:33:20.735Z,24.50
2019-01-15T23:36:13.877Z,26.57
2019-01-15T23:39:11.550Z,23.63
2019-01-15T23:42:16.445Z,23.13
2019-01-15T23:45:08.439Z,20.77
2019-01-15T23:48:11.905Z,14.27
2019-01-15T23:51:09.690Z,18.77
2019-01-15T23:54:19.216Z,15.30
2019-01-15T23:57:11.397Z,18.13
